ENFB

Oslo, Fornebu Airport

Oslo, Norway
METAR ENFB 210350Z AUTO 20012KT //// BKN003/// BKN012/// BKN028/// 15/15 Q1010 W///S3
Observed Flight Rules
Jul-21 @ 03:50 UTC (33 minutes ago)
Wind Clouds
200° at 12 knots
  • Broken at 300' AGL
  • Broken at 1,200' AGL
  • Broken at 2,800' AGL
Temperatures Readings
Current 15°C / 59°F
Dewpoint 15°C / 59°F
Humidity 100%
Altimeter 29.82" Hg
Pressure 1010 hPa
Elevation 10
METAR ENFB 210350Z AUTO 20012KT //// BKN003/// BKN012/// BKN028/// 15/15 Q1010 W///S3
Observed Flight Rules
Jul-21 @ 03:50 UTC
(33 minutes ago)
Wind
200° at 12 knots
Clouds
  • Broken at 300' AGL
  • Broken at 1,200' AGL
  • Broken at 2,800' AGL
Temperature Dewpoint
15°C / 59°F 15°C / 59°F
Humidity Altimeter Pressure
100% 29.82" Hg 1010 hPa